Columbia Station, Ohio
Current Conditions -  °F | °C
As of 5:51 AM on Wednesday 26 Nov 2014 (Local Time) from KCLE Reporting Station
Overcast Overcast  
Wind Chill: 32°   Ceiling: 2300
Heat Index: 32°   Visibility: 10mi
Dew Point: 24°   Wind: 3mph
Humidity: 73%   Direction: 70°ENE
Pressure: 30.16"   Gusts: NA
Location:  41.31°N, 81.95°W
Report Text: KCLE 261051Z 07003KT 10SM OVC023 00/M04 A3016 RMK AO2 SLP223 T00001044
Loading
Personal Weather Stations






























Interactive Weather Map New forecast layout! Learn more

10-Day Weather Forecast

Advertisements
Track Severe Weather on mobile